• Join FlightAware (Why Join?)
  • Login
  • US Flag 
01:17AM EDT


 

Airport Tracker/Info


-or-


 

Live Flight TrackerFlight Track Log ✈ DAL6032 ✈ 19-Apr-2013 ✈ KMEM - KCMH

Flight Track Log - Related Links

Times and Time Zones

All times are in EDT time to prevent confusion due to time zone crossing. See the DAL6032 flight status page for this flight to view local times or setup timezone preferences in your user account.

Time Position Orientation Groundspeed Altitude Reporting Facility
EDT Latitude Longitude Course Direction KTS MPH feet Rate Location/Type
08:57PM 35.0500 -89.9667 73° East 159 183 1,200  Level KMEM
08:58PM 35.1000 -89.9500 15° North 216 249 2,900 2,160 Climbing KMEM
08:59PM 35.1500 -89.8833 47° Northeast 266 306 5,400 2,460 Climbing KMEM
09:00PM 35.1330 -89.5329 72° East  Level FlightAware Approximate
09:00PM 35.1500 -89.8000 90° East 279 321 7,900  Level KMEM
09:01PM 35.1715 -89.3900 72° East  Level FlightAware Approximate
09:01PM 35.1667 -89.7167 76° East 313 360 9,400  Level KMEM
09:02PM 35.2092 -89.2468 73° East  Level FlightAware Approximate
09:02PM 35.1761 -89.6281 83° East 345 397 10,400  Level Memphis Center
09:03PM 35.1983 -89.5033 78° East 372 428 11,600 1,320 Climbing Memphis Center
09:04PM 35.2119 -89.3711 83° East 387 445 13,100 1,500 Climbing Memphis Center
09:05PM 35.2253 -89.2286 83° East 407 468 14,600 1,440 Climbing Memphis Center
09:06PM 35.2681 -89.1033 67° East 407 468 16,000 1,380 Climbing Memphis Center
09:07PM 35.3397 -88.9850 53° Northeast 399 459 17,400 1,320 Climbing Memphis Center
09:08PM 35.4114 -88.8769 51° Northeast 399 459 18,700 1,260 Climbing Memphis Center
09:09PM 35.4750 -88.7764 52° Northeast 404 465 20,000 1,200 Climbing Memphis Center
09:10PM 35.5486 -88.6628 51° Northeast 404 465 21,200 1,200 Climbing Memphis Center
09:11PM 35.6219 -88.5489 52° Northeast 411 473 22,500 1,200 Climbing Memphis Center
09:12PM 35.6994 -88.4269 52° Northeast 427 491 23,600 1,140 Climbing Memphis Center
09:13PM 35.7789 -88.3075 51° Northeast 434 499 24,800 1,140 Climbing Memphis Center
09:14PM 35.8689 -88.2103 41° Northeast 434 499 25,900 1,140 Climbing Memphis Center
09:15PM 35.9733 -88.1025 40° Northeast 434 499 27,100 1,080 Climbing Memphis Center
09:16PM 36.0572 -88.0103 42° Northeast 439 505 28,100 960 Climbing Memphis Center
09:17PM 36.1531 -87.9100 40° Northeast 451 519 29,100 960 Climbing Memphis Center
09:18PM 36.2533 -87.8064 40° Northeast 457 526 30,100 1,200 Climbing Memphis Center
09:19PM 36.3511 -87.7003 41° Northeast 462 532 31,600 1,320 Climbing Memphis Center
09:20PM 36.4489 -87.5964 41° Northeast 457 526 32,800 660 Climbing Memphis Center
09:21PM 36.5608 -87.4739 41° Northeast 472 543 33,000 60 Climbing Memphis Center
09:22PM 36.6683 -87.3589 41° Northeast 501 577 33,000  Level Memphis Center
09:23PM 36.7800 -87.2381 41° Northeast 519 597 33,000  Level Memphis Center
09:25PM 37.0200 -86.9736 41° Northeast 531 611 33,000  Level Indianapolis Center
09:26PM 37.1328 -86.8503 41° Northeast 532 612 33,000  Level Indianapolis Center
09:27PM 37.2458 -86.7250 41° Northeast 535 616 33,000  Level Indianapolis Center
09:28PM 37.3597 -86.5992 41° Northeast 538 619 33,000 -120 Level Indianapolis Center
09:29PM 37.4736 -86.4719 42° Northeast 540 621 32,800 -960 Descending Indianapolis Center
09:30PM 37.5844 -86.3472 42° Northeast 534 615 31,100 -900 Descending Indianapolis Center
09:31PM 37.6958 -86.2258 41° Northeast 526 605 31,000 -60 Descending Indianapolis Center
09:32PM 37.8089 -86.0986 42° Northeast 532 612 31,000  Level Indianapolis Center
09:33PM 37.9169 -85.9744 42° Northeast 532 612 31,000  Level Indianapolis Center
09:34PM 38.0294 -85.8467 42° Northeast 537 618 31,000 -60 Level Indianapolis Center
09:35PM 38.1411 -85.7203 42° Northeast 538 619 30,900 -1,020 Descending Indianapolis Center
09:36PM 38.2764 -85.5644 42° Northeast 547 629 29,000 -960 Descending Indianapolis Center
09:37PM 38.3903 -85.4333 42° Northeast 550 633 29,000  Level Indianapolis Center
09:38PM 38.5047 -85.3011 42° Northeast 555 639 29,000  Level Indianapolis Center
09:39PM 38.6197 -85.1664 42° Northeast 561 646 29,000  Level Indianapolis Center
09:40PM 38.7367 -85.0300 42° Northeast 564 649 29,000 -720 Level Indianapolis Center
09:41PM 38.8525 -84.8964 42° Northeast 559 643 27,600 -2,100 Descending Indianapolis Center
09:42PM 38.9594 -84.7672 43° Northeast 550 633 24,800 -1,800 Descending Indianapolis Center
09:43PM 39.0614 -84.6250 47° Northeast 538 619 24,000 -540 Descending Indianapolis Center
09:44PM 39.1456 -84.4653 56° Northeast 534 615 23,800 -360 Descending Indianapolis Center
09:45PM 39.2317 -84.3089 55° Northeast 531 611 23,300 -600 Descending Indianapolis Center
09:46PM 39.3253 -84.1200 57° Northeast 530 610 22,700 -600 Descending Indianapolis Center
09:47PM 39.3889 -83.9511 64° Northeast 522 601 22,100 -1,680 Descending Indianapolis Center
09:48PM 39.4514 -83.7886 63° Northeast 505 581 19,400 -2,820 Descending Indianapolis Center
09:50PM 39.5078 -83.6381 64° Northeast 467 537 16,400 -3,000 Descending Indianapolis Center
09:50PM 39.5278 -83.5836 65° Northeast 443 510 15,200 -3,360 Descending Indianapolis Center
09:51PM 39.5614 -83.4978 63° Northeast 440 506 13,000 -2,520 Descending Indianapolis Center
09:52PM 39.6186 -83.3733 59° Northeast 406 467 11,000 -1,500 Descending Indianapolis Center
09:53PM 39.6878 -83.2608 51° Northeast 399 459 10,000 -540 Descending Indianapolis Center
09:54PM 39.7547 -83.1500 52° Northeast 392 451 10,000  Level Indianapolis Center
09:55PM 39.8231 -83.0372 52° Northeast 396 456 10,000 -300 Level Indianapolis Center
09:56PM 39.8825 -82.9408 51° Northeast 343 395 9,500 -1,440 Descending Indianapolis Center
09:57PM 39.9103 -82.8242 73° East 294 338 7,100 -2,280 Descending Indianapolis Center
09:58PM 39.9356 -82.7231 72° East 278 320 4,500 -2,040 Descending Indianapolis Center
09:59PM 39.9881 -82.7300 354° North 261 300 3,000 -1,800 Descending Indianapolis Center